createdAt,value
2018-05-02T00:01:20.337Z,93.30
2018-05-02T00:03:48.245Z,93.30
2018-05-02T00:06:16.517Z,93.40
2018-05-02T00:08:44.782Z,93.30
2018-05-02T00:11:12.279Z,93.30
2018-05-02T00:13:40.056Z,93.40
2018-05-02T00:16:07.540Z,93.20
2018-05-02T00:18:35.043Z,93.60
2018-05-02T00:21:03.422Z,93.30
2018-05-02T00:23:31.670Z,93.40
2018-05-02T00:25:59.166Z,93.30
2018-05-02T00:28:26.657Z,93.40
2018-05-02T00:30:54.170Z,93.60
2018-05-02T00:33:22.420Z,93.70
2018-05-02T00:35:49.932Z,93.70
2018-05-02T00:38:17.762Z,93.90
2018-05-02T00:40:46.039Z,94.00
2018-05-02T00:43:14.308Z,94.10
2018-05-02T00:45:41.791Z,94.10
2018-05-02T00:48:09.304Z,94.00
2018-05-02T00:50:36.871Z,94.10
2018-05-02T00:53:04.360Z,94.30
2018-05-02T00:55:32.734Z,94.00
2018-05-02T00:58:00.985Z,94.00
2018-05-02T01:00:28.467Z,94.00
2018-05-02T01:02:56.717Z,93.40
2018-05-02T01:05:24.192Z,93.40
2018-05-02T01:07:51.711Z,93.50
2018-05-02T01:10:19.184Z,94.00
2018-05-02T01:12:46.804Z,93.50
2018-05-02T01:15:14.284Z,93.40
2018-05-02T01:17:41.767Z,93.30
2018-05-02T01:20:09.252Z,93.30
2018-05-02T01:22:38.669Z,93.50
2018-05-02T01:25:06.311Z,93.50
2018-05-02T01:27:33.791Z,92.40
2018-05-02T01:30:02.047Z,93.60
2018-05-02T01:32:30.057Z,93.50
2018-05-02T01:34:57.535Z,93.10
2018-05-02T01:37:25.018Z,93.90
2018-05-02T01:39:52.545Z,93.90
2018-05-02T01:42:20.042Z,93.50
2018-05-02T01:44:47.560Z,92.40
2018-05-02T01:47:15.057Z,92.00
2018-05-02T01:49:42.630Z,91.90
2018-05-02T01:52:10.060Z,91.60
2018-05-02T01:54:37.592Z,91.50
2018-05-02T01:57:05.089Z,91.50
2018-05-02T01:59:32.588Z,91.20
2018-05-02T02:02:00.846Z,90.70
2018-05-02T02:04:29.091Z,90.60
2018-05-02T02:06:56.599Z,90.50
2018-05-02T02:09:24.090Z,90.30
2018-05-02T02:11:51.908Z,89.90
2018-05-02T02:14:20.172Z,90.00
2018-05-02T02:16:47.644Z,90.00
2018-05-02T02:19:15.992Z,90.30
2018-05-02T02:21:43.491Z,90.30
2018-05-02T02:24:11.764Z,89.10
2018-05-02T02:26:40.017Z,90.50
2018-05-02T02:29:07.499Z,90.50
2018-05-02T02:31:35.767Z,90.50
2018-05-02T02:34:04.061Z,90.00
2018-05-02T02:36:31.523Z,90.00
2018-05-02T02:39:02.016Z,90.40
2018-05-02T02:41:29.497Z,90.50
2018-05-02T02:43:57.861Z,90.90
2018-05-02T02:46:25.347Z,90.90
2018-05-02T02:48:52.821Z,90.60
2018-05-02T02:51:20.582Z,91.00
2018-05-02T02:53:48.079Z,90.90
2018-05-02T02:56:15.574Z,90.90
2018-05-02T02:58:43.826Z,91.10
2018-05-02T03:01:11.324Z,91.10
2018-05-02T03:03:38.820Z,91.10
2018-05-02T03:06:06.303Z,91.00
2018-05-02T03:08:34.105Z,91.00
2018-05-02T03:11:01.686Z,91.00
2018-05-02T03:13:29.423Z,90.90
2018-05-02T03:15:57.696Z,92.40
2018-05-02T03:18:26.158Z,91.60
2018-05-02T03:20:53.648Z,91.60
2018-05-02T03:23:21.157Z,92.60
2018-05-02T03:25:48.655Z,92.60
2018-05-02T03:28:16.919Z,92.60
2018-05-02T03:30:44.404Z,92.50
2018-05-02T03:33:12.640Z,92.60
2018-05-02T03:35:40.121Z,92.60
2018-05-02T03:38:08.381Z,93.20
2018-05-02T03:40:35.865Z,93.20
2018-05-02T03:43:04.162Z,92.80
2018-05-02T03:45:31.639Z,92.60
2018-05-02T03:47:59.111Z,93.00
2018-05-02T03:50:26.596Z,93.00
2018-05-02T03:52:54.850Z,92.80
2018-05-02T03:55:22.347Z,92.70
2018-05-02T03:57:50.593Z,91.50
2018-05-02T04:00:29.935Z,91.40
2018-05-02T04:03:09.329Z,91.80
2018-05-02T04:05:48.526Z,91.80
2018-05-02T04:08:16.784Z,91.60
2018-05-02T04:10:44.272Z,91.60
2018-05-02T04:13:11.749Z,91.50
2018-05-02T04:15:39.227Z,91.30
2018-05-02T04:18:06.737Z,91.10
2018-05-02T04:20:34.984Z,91.10
2018-05-02T04:23:02.556Z,91.10
2018-05-02T04:25:30.044Z,91.30
2018-05-02T04:27:57.529Z,91.70
2018-05-02T04:30:25.047Z,91.40
2018-05-02T04:32:52.540Z,91.20
2018-05-02T04:35:20.022Z,91.50
2018-05-02T04:37:47.496Z,91.50
2018-05-02T04:40:15.007Z,91.80
2018-05-02T04:42:42.523Z,91.70
2018-05-02T04:45:10.008Z,91.10
2018-05-02T04:47:37.545Z,91.00
2018-05-02T04:50:05.048Z,90.80
2018-05-02T04:52:32.563Z,90.50
2018-05-02T04:55:00.821Z,90.60
2018-05-02T04:57:28.321Z,90.50
2018-05-02T04:59:55.848Z,90.30
2018-05-02T05:02:23.338Z,90.40
2018-05-02T05:04:50.828Z,90.70
2018-05-02T05:07:18.329Z,90.50
2018-05-02T05:09:45.840Z,90.10
2018-05-02T05:12:13.408Z,90.30
2018-05-02T05:14:40.823Z,90.00
2018-05-02T05:17:09.080Z,90.50
2018-05-02T05:19:36.563Z,90.50
2018-05-02T05:22:04.071Z,90.50
2018-05-02T05:24:31.655Z,90.10
2018-05-02T05:26:59.255Z,89.00
2018-05-02T05:29:26.788Z,89.30
2018-05-02T05:31:55.038Z,89.20
2018-05-02T05:34:22.534Z,89.10
2018-05-02T05:36:50.886Z,88.50
2018-05-02T05:39:18.639Z,88.30
2018-05-02T05:41:46.694Z,87.70
2018-05-02T05:44:14.233Z,86.90
2018-05-02T05:46:41.703Z,88.30
2018-05-02T05:49:09.215Z,87.60
2018-05-02T05:51:37.468Z,85.60
2018-05-02T05:54:05.090Z,85.60
2018-05-02T05:56:32.506Z,85.40
2018-05-02T05:59:00.779Z,82.10
2018-05-02T06:01:28.288Z,82.10
2018-05-02T06:03:55.800Z,81.60
2018-05-02T06:06:23.313Z,79.40
2018-05-02T06:08:50.795Z,75.40
2018-05-02T06:11:18.786Z,75.90
2018-05-02T06:13:46.275Z,74.90
2018-05-02T06:16:13.763Z,74.00
2018-05-02T06:18:41.259Z,73.20
2018-05-02T06:21:08.736Z,72.50
2018-05-02T06:23:36.989Z,71.00
2018-05-02T06:26:05.042Z,71.00
2018-05-02T06:28:33.247Z,68.90
2018-05-02T06:31:00.731Z,69.00
2018-05-02T06:33:28.304Z,70.60
2018-05-02T06:35:55.792Z,68.40
2018-05-02T06:38:24.115Z,68.20
2018-05-02T06:40:52.395Z,67.00
2018-05-02T06:43:20.661Z,68.10
2018-05-02T06:45:48.913Z,66.20
2018-05-02T06:48:16.404Z,66.20
2018-05-02T06:50:44.665Z,67.60
2018-05-02T06:53:12.148Z,67.60
2018-05-02T06:55:40.410Z,69.10
2018-05-02T06:58:08.745Z,66.30
2018-05-02T07:00:36.240Z,66.30
2018-05-02T07:03:03.717Z,68.60
2018-05-02T07:05:31.979Z,67.30
2018-05-02T07:08:00.265Z,66.40
2018-05-02T07:10:27.778Z,66.40
2018-05-02T07:12:55.262Z,68.20
2018-05-02T07:15:22.884Z,68.20
2018-05-02T07:17:50.372Z,66.90
2018-05-02T07:20:17.888Z,67.40
2018-05-02T07:22:45.363Z,65.80
2018-05-02T07:25:12.867Z,67.10
2018-05-02T07:27:40.355Z,68.00
2018-05-02T07:30:07.928Z,65.70
2018-05-02T07:32:35.435Z,66.00
2018-05-02T07:35:02.908Z,65.40
2018-05-02T07:37:30.400Z,67.70
2018-05-02T07:39:57.939Z,66.80
2018-05-02T07:42:26.211Z,67.50
2018-05-02T07:44:54.741Z,64.40
2018-05-02T07:47:22.251Z,64.40
2018-05-02T07:49:50.520Z,66.10
2018-05-02T07:52:18.017Z,66.00
2018-05-02T07:54:45.537Z,65.40
2018-05-02T07:57:14.048Z,63.70
2018-05-02T07:59:41.613Z,63.60
2018-05-02T08:02:09.244Z,63.80
2018-05-02T08:04:37.503Z,63.70
2018-05-02T08:07:05.113Z,63.60
2018-05-02T08:09:32.611Z,63.40
2018-05-02T08:12:00.106Z,63.80
2018-05-02T08:14:27.655Z,61.20
2018-05-02T08:16:55.342Z,63.00
2018-05-02T08:19:22.829Z,60.90
2018-05-02T08:21:50.322Z,63.20
2018-05-02T08:24:17.950Z,59.90
2018-05-02T08:26:45.430Z,59.00
2018-05-02T08:29:12.916Z,56.10
2018-05-02T08:31:40.403Z,57.80
2018-05-02T08:34:07.886Z,60.00
2018-05-02T08:36:35.409Z,61.70
2018-05-02T08:39:03.658Z,57.10
2018-05-02T08:41:31.144Z,57.30
2018-05-02T08:43:59.395Z,59.00
2018-05-02T08:46:26.893Z,58.60
2018-05-02T08:48:54.388Z,57.90
2018-05-02T08:51:21.877Z,58.40
2018-05-02T08:53:49.400Z,56.60
2018-05-02T08:56:17.310Z,56.60
2018-05-02T08:58:45.587Z,58.10
2018-05-02T09:01:13.840Z,56.60
2018-05-02T09:03:41.332Z,57.00
2018-05-02T09:06:08.851Z,57.60
2018-05-02T09:08:36.339Z,53.10
2018-05-02T09:11:04.600Z,52.80
2018-05-02T09:13:32.131Z,52.80
2018-05-02T09:15:59.614Z,57.20
2018-05-02T09:18:27.092Z,56.10
2018-05-02T09:20:55.351Z,51.90
2018-05-02T09:23:22.839Z,51.70
2018-05-02T09:25:51.092Z,53.90
2018-05-02T09:28:18.598Z,53.30
2018-05-02T09:30:46.188Z,52.20
2018-05-02T09:33:13.672Z,50.00
2018-05-02T09:35:41.241Z,50.80
2018-05-02T09:38:08.776Z,52.80
2018-05-02T09:40:36.297Z,52.60
2018-05-02T09:43:03.795Z,54.20
2018-05-02T09:45:31.305Z,51.50
2018-05-02T09:47:58.803Z,50.80
2018-05-02T09:50:26.279Z,51.30
2018-05-02T09:52:53.782Z,50.20
2018-05-02T09:55:21.269Z,50.50
2018-05-02T09:57:48.751Z,52.00
2018-05-02T10:00:16.223Z,50.30
2018-05-02T10:02:44.908Z,54.10
2018-05-02T10:05:12.384Z,53.90
2018-05-02T10:07:40.624Z,52.80
2018-05-02T10:10:08.232Z,52.80
2018-05-02T10:12:35.863Z,51.40
2018-05-02T10:15:03.315Z,49.20
2018-05-02T10:17:31.051Z,48.50
2018-05-02T10:19:58.531Z,50.90
2018-05-02T10:22:26.007Z,48.70
2018-05-02T10:24:54.333Z,51.00
2018-05-02T10:27:21.805Z,50.30
2018-05-02T10:29:49.365Z,47.40
2018-05-02T10:32:16.851Z,48.50
2018-05-02T10:34:45.134Z,48.00
2018-05-02T10:37:12.652Z,47.80
2018-05-02T10:39:40.134Z,45.50
2018-05-02T10:42:07.646Z,47.70
2018-05-02T10:44:35.140Z,51.70
2018-05-02T10:47:02.630Z,48.60
2018-05-02T10:49:30.128Z,48.60
2018-05-02T10:51:57.639Z,48.00
2018-05-02T10:54:25.245Z,47.60
2018-05-02T10:56:52.737Z,45.70
2018-05-02T10:59:20.215Z,47.00
2018-05-02T11:01:47.712Z,49.30
2018-05-02T11:04:15.189Z,46.00
2018-05-02T11:06:42.712Z,47.50
2018-05-02T11:09:10.968Z,45.60
2018-05-02T11:11:38.469Z,45.70
2018-05-02T11:14:05.976Z,48.60
2018-05-02T11:16:33.479Z,46.20
2018-05-02T11:19:00.971Z,47.60
2018-05-02T11:21:28.461Z,45.60
2018-05-02T11:23:56.016Z,45.10
2018-05-02T11:26:23.507Z,44.80
2018-05-02T11:28:51.010Z,45.90
2018-05-02T11:31:18.501Z,49.70
2018-05-02T11:33:46.380Z,48.30
2018-05-02T11:36:14.623Z,49.40
2018-05-02T11:38:42.118Z,49.00
2018-05-02T11:41:10.376Z,46.10
2018-05-02T11:43:37.853Z,46.20
2018-05-02T11:46:06.165Z,47.20
2018-05-02T11:48:33.656Z,47.10
2018-05-02T11:51:01.150Z,45.40
2018-05-02T11:53:29.843Z,45.40
2018-05-02T11:55:58.132Z,46.50
2018-05-02T11:58:25.616Z,46.90
2018-05-02T12:00:53.152Z,45.00
2018-05-02T12:03:21.688Z,45.90
2018-05-02T12:05:49.660Z,47.50
2018-05-02T12:08:17.196Z,47.40
2018-05-02T12:10:44.787Z,49.20
2018-05-02T12:13:12.345Z,43.90
2018-05-02T12:15:40.236Z,45.30
2018-05-02T12:18:08.500Z,47.20
2018-05-02T12:20:36.788Z,47.80
2018-05-02T12:23:04.359Z,47.30
2018-05-02T12:25:32.643Z,46.60
2018-05-02T12:28:00.131Z,46.20
2018-05-02T12:30:27.619Z,48.00
2018-05-02T12:32:55.100Z,48.00
2018-05-02T12:35:23.374Z,46.60
2018-05-02T12:37:51.641Z,45.90
2018-05-02T12:40:19.889Z,50.00
2018-05-02T12:42:47.528Z,49.90
2018-05-02T12:45:15.018Z,47.50
2018-05-02T12:47:42.509Z,48.40
2018-05-02T12:50:10.769Z,47.70
2018-05-02T12:52:38.260Z,48.00
2018-05-02T12:55:05.810Z,44.70
2018-05-02T12:57:34.092Z,43.90
2018-05-02T13:00:01.605Z,44.10
2018-05-02T13:02:29.123Z,50.10
2018-05-02T13:04:56.671Z,45.30
2018-05-02T13:07:24.175Z,45.70
2018-05-02T13:09:51.672Z,47.90
2018-05-02T13:12:19.953Z,48.10
2018-05-02T13:14:48.330Z,49.40
2018-05-02T13:17:16.643Z,49.80
2018-05-02T13:19:44.161Z,49.80
2018-05-02T13:22:12.456Z,46.00
2018-05-02T13:24:39.996Z,46.00
2018-05-02T13:27:08.272Z,48.60
2018-05-02T13:29:35.842Z,48.50
2018-05-02T13:32:04.160Z,48.10
2018-05-02T13:34:31.644Z,47.90
2018-05-02T13:36:59.126Z,50.00
2018-05-02T13:39:27.415Z,45.30
2018-05-02T13:41:54.867Z,45.30
2018-05-02T13:44:23.126Z,48.20
2018-05-02T13:46:50.603Z,48.10
2018-05-02T13:49:19.022Z,46.30
2018-05-02T13:51:47.225Z,46.90
2018-05-02T13:54:14.702Z,46.80
2018-05-02T13:56:42.185Z,48.60
2018-05-02T13:59:10.429Z,48.40
2018-05-02T14:01:38.247Z,48.30
2018-05-02T14:04:05.738Z,47.70
2018-05-02T14:06:33.454Z,47.80
2018-05-02T14:09:00.958Z,48.80
2018-05-02T14:11:28.460Z,45.40
2018-05-02T14:13:56.783Z,48.40
2018-05-02T14:16:24.295Z,48.60
2018-05-02T14:18:51.846Z,50.20
2018-05-02T14:21:20.147Z,48.10
2018-05-02T14:23:47.628Z,48.10
2018-05-02T14:26:15.131Z,47.30
2018-05-02T14:28:42.647Z,49.10
2018-05-02T14:31:10.143Z,45.90
2018-05-02T14:33:37.666Z,47.40
2018-05-02T14:36:05.160Z,46.00
2018-05-02T14:38:32.643Z,49.00
2018-05-02T14:41:00.891Z,48.50
2018-05-02T14:43:28.381Z,48.10
2018-05-02T14:45:56.684Z,47.40
2018-05-02T14:48:25.071Z,47.30
2018-05-02T14:50:52.588Z,46.90
2018-05-02T14:53:20.856Z,48.40
2018-05-02T14:55:48.340Z,48.10
2018-05-02T14:58:15.835Z,46.90
2018-05-02T15:00:43.387Z,48.10
2018-05-02T15:03:10.882Z,47.30
2018-05-02T15:05:38.383Z,46.40
2018-05-02T15:08:05.870Z,47.00
2018-05-02T15:10:33.577Z,45.90
2018-05-02T15:13:01.059Z,47.80
2018-05-02T15:15:28.679Z,46.90
2018-05-02T15:17:56.171Z,47.80
2018-05-02T15:20:24.415Z,48.50
2018-05-02T15:22:51.909Z,48.90
2018-05-02T15:25:20.149Z,49.40
2018-05-02T15:27:47.652Z,49.50
2018-05-02T15:30:15.130Z,49.30
2018-05-02T15:32:42.645Z,45.70
2018-05-02T15:35:10.132Z,48.00
2018-05-02T15:37:37.604Z,48.30
2018-05-02T15:40:05.100Z,45.60
2018-05-02T15:42:32.575Z,47.10
2018-05-02T15:45:00.069Z,47.30
2018-05-02T15:47:27.552Z,46.20
2018-05-02T15:49:55.028Z,45.70
2018-05-02T15:52:23.025Z,48.90
2018-05-02T15:54:52.381Z,47.10
2018-05-02T15:57:19.951Z,46.90
2018-05-02T15:59:47.555Z,47.20
2018-05-02T16:02:15.800Z,46.10
2018-05-02T16:04:43.333Z,46.00
2018-05-02T16:07:10.845Z,44.90
2018-05-02T16:09:39.121Z,47.60
2018-05-02T16:12:07.377Z,46.70
2018-05-02T16:14:34.865Z,46.80
2018-05-02T16:17:04.976Z,47.50
2018-05-02T16:19:33.291Z,47.90
2018-05-02T16:22:00.880Z,47.90
2018-05-02T16:24:29.064Z,47.80
2018-05-02T16:26:56.960Z,48.10
2018-05-02T16:29:25.227Z,48.60
2018-05-02T16:31:52.837Z,48.30
2018-05-02T16:34:20.327Z,47.40
2018-05-02T16:36:47.820Z,47.00
2018-05-02T16:39:16.076Z,46.40
2018-05-02T16:41:44.347Z,46.50
2018-05-02T16:44:11.823Z,46.60
2018-05-02T16:46:40.103Z,45.20
2018-05-02T16:49:08.383Z,47.30
2018-05-02T16:51:36.624Z,45.70
2018-05-02T16:54:04.220Z,45.50
2018-05-02T16:56:32.534Z,47.40
2018-05-02T16:59:00.767Z,47.50
2018-05-02T17:01:29.080Z,47.70
2018-05-02T17:03:56.593Z,47.00
2018-05-02T17:06:24.079Z,46.70
2018-05-02T17:08:51.630Z,46.40
2018-05-02T17:11:20.299Z,47.10
2018-05-02T17:13:48.740Z,47.20
2018-05-02T17:16:16.216Z,46.60
2018-05-02T17:18:43.808Z,50.20
2018-05-02T17:21:12.052Z,48.10
2018-05-02T17:23:39.648Z,48.00
2018-05-02T17:26:07.901Z,47.90
2018-05-02T17:28:35.382Z,47.80
2018-05-02T17:31:03.815Z,46.90
2018-05-02T17:33:31.282Z,47.20
2018-05-02T17:35:58.803Z,46.50
2018-05-02T17:38:26.283Z,47.10
2018-05-02T17:40:53.794Z,47.60
2018-05-02T17:43:21.262Z,47.30
2018-05-02T17:45:49.541Z,48.70
2018-05-02T17:48:17.788Z,49.20
2018-05-02T17:50:45.272Z,49.20
2018-05-02T17:53:13.527Z,48.40
2018-05-02T17:55:41.014Z,48.30
2018-05-02T17:58:09.268Z,49.10
2018-05-02T18:00:36.741Z,48.90
2018-05-02T18:03:04.993Z,48.80
2018-05-02T18:05:32.551Z,49.70
2018-05-02T18:08:00.064Z,50.80
2018-05-02T18:10:27.577Z,48.00
2018-05-02T18:12:55.343Z,50.40
2018-05-02T18:15:22.831Z,48.90
2018-05-02T18:17:50.323Z,49.50
2018-05-02T18:20:17.805Z,50.20
2018-05-02T18:22:45.289Z,51.30
2018-05-02T18:25:13.541Z,50.90
2018-05-02T18:27:41.051Z,51.40
2018-05-02T18:30:08.624Z,53.10
2018-05-02T18:32:36.112Z,51.00
2018-05-02T18:35:03.587Z,51.00
2018-05-02T18:37:31.079Z,52.50
2018-05-02T18:39:58.639Z,52.70
2018-05-02T18:42:26.270Z,53.60
2018-05-02T18:44:53.751Z,53.30
2018-05-02T18:47:22.005Z,54.20
2018-05-02T18:49:49.503Z,54.10
2018-05-02T18:52:17.180Z,53.40
2018-05-02T18:54:44.700Z,55.40
2018-05-02T18:57:12.951Z,56.90
2018-05-02T18:59:40.435Z,56.90
2018-05-02T19:02:08.683Z,57.70
2018-05-02T19:04:36.177Z,58.10
2018-05-02T19:07:04.439Z,58.00
2018-05-02T19:09:31.971Z,57.90
2018-05-02T19:11:59.456Z,57.80
2018-05-02T19:14:28.489Z,57.90
2018-05-02T19:16:56.000Z,58.30
2018-05-02T19:19:29.147Z,58.80
2018-05-02T19:21:56.648Z,61.30
2018-05-02T19:24:24.135Z,60.60
2018-05-02T19:26:52.445Z,62.10
2018-05-02T19:29:19.934Z,62.00
2018-05-02T19:31:53.103Z,61.90
2018-05-02T19:34:20.585Z,60.00
2018-05-02T19:36:48.492Z,63.20
2018-05-02T19:39:16.862Z,63.60
2018-05-02T19:41:50.994Z,61.00
2018-05-02T19:44:18.499Z,60.90
2018-05-02T19:46:46.047Z,59.90
2018-05-02T19:49:13.560Z,61.60
2018-05-02T19:54:42.197Z,63.90
2018-05-02T19:57:08.363Z,63.00
2018-05-02T19:59:34.529Z,63.20
2018-05-02T20:02:06.860Z,61.90
2018-05-02T20:04:33.040Z,62.10
2018-05-02T20:06:59.197Z,63.30
2018-05-02T20:09:31.441Z,62.90
2018-05-02T20:12:04.838Z,62.80
2018-05-02T20:14:31.054Z,64.10
2018-05-02T20:16:57.951Z,66.10
2018-05-02T20:19:24.109Z,65.30
2018-05-02T20:21:50.255Z,65.30
2018-05-02T20:24:17.148Z,67.40
2018-05-02T20:26:43.442Z,67.20
2018-05-02T20:29:10.385Z,66.60
2018-05-02T20:31:37.253Z,67.00
2018-05-02T20:34:03.450Z,67.00
2018-05-02T20:36:30.397Z,66.90
2018-05-02T20:38:56.437Z,67.30
2018-05-02T20:41:22.577Z,66.60
2018-05-02T20:43:48.846Z,67.80
2018-05-02T20:46:14.978Z,67.10
2018-05-02T20:48:41.138Z,68.20
2018-05-02T20:51:08.126Z,68.70
2018-05-02T20:53:34.266Z,68.60
2018-05-02T20:56:00.393Z,69.30
2018-05-02T20:58:26.553Z,68.50
2018-05-02T21:00:52.973Z,69.40
2018-05-02T21:03:19.105Z,71.00
2018-05-02T21:05:45.339Z,70.20
2018-05-02T21:08:11.474Z,70.20
2018-05-02T21:10:37.624Z,70.60
2018-05-02T21:13:04.513Z,70.60
2018-05-02T21:15:30.670Z,70.50
2018-05-02T21:17:56.813Z,70.40
2018-05-02T21:20:23.826Z,71.80
2018-05-02T21:22:49.994Z,71.80
2018-05-02T21:25:16.858Z,72.20
2018-05-02T21:27:43.016Z,71.80
2018-05-02T21:30:09.189Z,71.40
2018-05-02T21:32:35.318Z,72.10
2018-05-02T21:35:01.443Z,72.00
2018-05-02T21:37:28.053Z,73.20
2018-05-02T21:39:54.254Z,72.70
2018-05-02T21:42:20.549Z,73.20
2018-05-02T21:44:46.807Z,73.50
2018-05-02T21:47:13.003Z,73.30
2018-05-02T21:49:39.122Z,73.40
2018-05-02T21:52:05.262Z,74.50
2018-05-02T21:54:31.430Z,73.50
2018-05-02T21:56:57.555Z,74.10
2018-05-02T21:59:23.733Z,74.80
2018-05-02T22:01:49.964Z,72.80
2018-05-02T22:04:16.098Z,74.00
2018-05-02T22:06:43.077Z,74.60
2018-05-02T22:09:09.965Z,74.70
2018-05-02T22:11:36.111Z,74.70
2018-05-02T22:14:02.322Z,76.10
2018-05-02T22:16:28.451Z,75.40
2018-05-02T22:18:54.586Z,74.60
2018-05-02T22:21:20.711Z,75.70
2018-05-02T22:23:46.886Z,75.30
2018-05-02T22:26:13.817Z,76.70
2018-05-02T22:28:40.830Z,76.70
2018-05-02T22:31:06.958Z,76.50
2018-05-02T22:33:33.101Z,76.90
2018-05-02T22:35:59.686Z,76.60
2018-05-02T22:38:25.821Z,76.10
2018-05-02T22:40:52.075Z,76.30
2018-05-02T22:43:18.225Z,77.10
2018-05-02T22:45:44.345Z,76.90
2018-05-02T22:48:10.512Z,77.00
2018-05-02T22:50:36.918Z,76.30
2018-05-02T22:53:03.785Z,77.20
2018-05-02T22:55:29.923Z,77.20
2018-05-02T22:57:56.085Z,77.30
2018-05-02T23:00:22.235Z,77.50
2018-05-02T23:02:48.364Z,76.40
2018-05-02T23:05:14.498Z,78.10
2018-05-02T23:07:41.379Z,76.70
2018-05-02T23:10:07.510Z,76.60
2018-05-02T23:12:33.773Z,76.30
2018-05-02T23:14:59.898Z,76.40
2018-05-02T23:17:26.025Z,76.20
2018-05-02T23:19:52.189Z,77.10
2018-05-02T23:22:19.118Z,77.00
2018-05-02T23:24:46.106Z,76.10
2018-05-02T23:27:12.249Z,75.90
2018-05-02T23:29:38.361Z,77.10
2018-05-02T23:32:04.590Z,76.80
2018-05-02T23:34:30.734Z,76.70
2018-05-02T23:37:00.165Z,77.40
2018-05-02T23:39:26.759Z,76.40
2018-05-02T23:41:52.890Z,76.40
2018-05-02T23:44:19.019Z,77.10
2018-05-02T23:46:45.190Z,76.80
2018-05-02T23:49:11.439Z,76.20
2018-05-02T23:51:38.370Z,77.10
2018-05-02T23:54:05.325Z,77.00
2018-05-02T23:56:32.185Z,77.60
2018-05-02T23:58:58.341Z,77.70
